Terminal Aerodrome Forecast
Issued by NWS

Home | Current Version | Previous Version | Text Only | Print | Product List | Glossary On
Versions: 1 2 3 4 5 6 7 8 9 10 11 12 13 14 15 16 17 18
000
FTAK31 PAFA 262339
TAFATA
TAF
PATA 262339Z 2700/2724 VRB03KT P6SM SCT040 BKN080
     FM271000 VRB03KT 2SM BR BKN010
     FM271900 31005KT P6SM SCT040=

USA.gov is the U.S. government's official web portal to all federal, state and local government web resources and services.